Time;durP1;ratioP1;P1;durP2;ratioP2;P2;SDS_P1;SDS_P2;PMS_P1;PMS_P2;Temp;Humidity;BMP_temperature;BMP_pressure;BME280_temperature;BME280_humidity;BME280_pressure;Samples;Min_cycle;Max_cycle;Signal;HPM_P1;HPM_P2
2024/01/13 00:00:15;;;;;;;409.25;369.20;;;22.60;61.10;;;;;;6237725;27;85272;-63
2024/01/13 00:03:17;;;;;;;424.80;382.80;;;22.60;61.00;;;;;;6238267;28;85228;-61
2024/01/13 00:06:19;;;;;;;418.40;377.48;;;22.60;60.80;;;;;;6227246;28;85298;-61
2024/01/13 00:09:21;;;;;;;456.92;411.90;;;22.50;60.60;;;;;;6247997;27;87646;-61
2024/01/13 00:12:25;;;;;;;435.83;393.02;;;22.60;60.50;;;;;;6236608;27;85308;-62
2024/01/13 00:15:26;;;;;;;462.33;417.13;;;22.60;60.80;;;;;;6232077;28;85301;-61
2024/01/13 00:18:28;;;;;;;433.25;390.63;;;22.60;60.50;;;;;;6237824;28;85738;-61
2024/01/13 00:21:30;;;;;;;401.13;362.20;;;22.60;60.10;;;;;;6244921;27;86866;-61
2024/01/13 00:24:32;;;;;;;384.02;346.35;;;22.60;60.10;;;;;;6244155;27;86747;-61
2024/01/13 00:27:36;;;;;;;358.48;323.63;;;22.60;59.90;;;;;;6248110;27;85308;-61
2024/01/13 00:30:38;;;;;;;327.67;296.27;;;22.60;59.70;;;;;;6246856;27;86225;-59
2024/01/13 00:33:43;;;;;;;301.42;272.67;;;22.60;60.00;;;;;;6238416;27;86956;-60
2024/01/13 00:36:45;;;;;;;285.58;258.17;;;22.60;59.80;;;;;;6240562;27;85949;-59
2024/01/13 00:39:47;;;;;;;270.08;243.93;;;22.50;59.80;;;;;;6241741;27;85312;-60
2024/01/13 00:42:50;;;;;;;260.40;235.50;;;22.60;60.00;;;;;;6248534;27;85760;-60
2024/01/13 00:45:52;;;;;;;240.80;217.80;;;22.60;60.20;;;;;;6241474;27;85613;-60
2024/01/13 00:48:54;;;;;;;227.20;205.18;;;22.60;60.60;;;;;;6241718;28;87323;-60
2024/01/13 00:51:56;;;;;;;215.95;195.00;;;22.60;61.00;;;;;;6239293;28;85354;-61
2024/01/13 00:54:58;;;;;;;200.43;180.85;;;22.60;61.30;;;;;;6239821;27;86264;-60
2024/01/13 00:58:01;;;;;;;195.52;176.18;;;22.60;61.50;;;;;;6244356;27;85279;-61
2024/01/13 01:01:03;;;;;;;195.98;176.80;;;22.60;61.80;;;;;;6231494;27;86049;-61
2024/01/13 01:04:05;;;;;;;185.13;167.02;;;22.60;62.00;;;;;;6238172;27;85217;-60
2024/01/13 01:07:07;;;;;;;169.73;152.98;;;22.60;62.30;;;;;;6245451;27;85263;-61
2024/01/13 01:10:10;;;;;;;165.38;148.65;;;22.60;62.40;;;;;;6243439;27;86268;-61
2024/01/13 01:13:14;;;;;;;160.70;144.80;;;22.60;62.50;;;;;;6236956;28;85204;-61
2024/01/13 01:16:16;;;;;;;155.35;140.07;;;22.60;62.70;;;;;;6231917;27;85770;-61
2024/01/13 01:19:18;;;;;;;151.15;136.20;;;22.70;62.80;;;;;;6234645;27;86062;-61
2024/01/13 01:22:20;;;;;;;145.68;131.45;;;22.60;62.80;;;;;;6238724;27;85618;-62
2024/01/13 01:25:22;;;;;;;141.40;127.78;;;22.60;62.80;;;;;;6244199;27;85486;-62
2024/01/13 01:28:25;;;;;;;135.23;122.07;;;22.60;63.00;;;;;;6232543;27;85243;-61
2024/01/13 01:31:27;;;;;;;132.90;120.00;;;22.60;63.00;;;;;;6250792;27;85348;-61
2024/01/13 01:34:29;;;;;;;127.40;115.00;;;22.60;63.00;;;;;;6243805;27;85270;-61
2024/01/13 01:37:31;;;;;;;128.45;115.88;;;22.60;63.20;;;;;;6248771;27;85221;-61
2024/01/13 01:40:36;;;;;;;122.50;110.70;;;22.60;63.20;;;;;;6240691;27;85283;-61
2024/01/13 01:43:39;;;;;;;120.40;108.57;;;22.70;63.20;;;;;;6234369;28;85370;-61
2024/01/13 01:46:43;;;;;;;117.13;105.65;;;22.60;63.30;;;;;;6240287;28;85711;-61
2024/01/13 01:49:45;;;;;;;115.57;104.05;;;22.70;63.50;;;;;;6244217;27;86853;-61
2024/01/13 01:52:48;;;;;;;109.45;98.90;;;22.70;63.70;;;;;;6242091;27;85680;-61
2024/01/13 01:55:50;;;;;;;112.47;101.43;;;22.70;64.00;;;;;;6245395;27;83706;-61
2024/01/13 01:58:54;;;;;;;107.63;97.40;;;22.70;64.10;;;;;;6241069;27;85622;-60
2024/01/13 02:01:56;;;;;;;105.75;95.65;;;22.70;64.30;;;;;;6252123;27;84746;-61
2024/01/13 02:05:02;;;;;;;102.43;92.25;;;22.70;64.30;;;;;;6247533;27;84403;-61
2024/01/13 02:08:05;;;;;;;97.38;87.70;;;22.70;64.20;;;;;;6246380;27;84117;-60
2024/01/13 02:11:07;;;;;;;92.18;83.20;;;22.70;64.20;;;;;;6238807;28;88967;-61
2024/01/13 02:14:10;;;;;;;91.72;83.03;;;22.60;64.00;;;;;;6239582;27;88447;-60
2024/01/13 02:17:12;;;;;;;87.53;79.03;;;22.70;64.10;;;;;;6245284;27;88995;-60
2024/01/13 02:20:15;;;;;;;86.03;77.70;;;22.70;64.10;;;;;;6250471;27;88167;-60
2024/01/13 02:23:18;;;;;;;81.78;73.97;;;22.70;64.10;;;;;;6241155;28;90127;-60
2024/01/13 02:26:20;;;;;;;82.45;74.47;;;22.70;64.20;;;;;;6237274;27;87942;-61
2024/01/13 02:29:22;;;;;;;78.70;71.10;;;22.70;64.50;;;;;;6235178;28;88611;-60
2024/01/13 02:32:24;;;;;;;76.18;68.88;;;22.70;64.50;;;;;;6243748;27;88023;-60
2024/01/13 02:35:26;;;;;;;74.47;67.18;;;22.70;64.40;;;;;;6236623;27;89497;-61
2024/01/13 02:38:29;;;;;;;70.97;64.05;;;22.70;64.40;;;;;;6246751;27;89347;-61
2024/01/13 02:41:31;;;;;;;70.03;63.13;;;22.70;64.40;;;;;;6238868;27;89137;-61
2024/01/13 02:44:33;;;;;;;68.13;61.53;;;22.70;64.40;;;;;;6243169;27;88253;-61
2024/01/13 02:47:45;;;;;;;67.72;61.03;;;22.70;64.40;;;;;;6238210;27;88921;-61
2024/01/13 02:50:53;;;;;;;66.03;59.67;;;22.70;64.20;;;;;;6229742;27;88808;-61
2024/01/13 02:53:56;;;;;;;63.70;57.40;;;22.70;64.70;;;;;;6236358;28;89959;-61
2024/01/13 02:57:00;;;;;;;137.43;123.93;;;22.70;64.80;;;;;;6237993;27;89584;-61
2024/01/13 03:00:04;;;;;;;184.45;166.30;;;22.70;65.20;;;;;;6250695;27;89055;-62
2024/01/13 03:03:06;;;;;;;219.50;198.38;;;22.70;65.10;;;;;;6233631;27;89005;-62
2024/01/13 03:06:08;;;;;;;202.27;183.02;;;22.70;65.20;;;;;;6239324;27;89049;-61
2024/01/13 03:09:12;;;;;;;195.82;177.18;;;22.70;65.60;;;;;;6236402;27;88971;-61
2024/01/13 03:12:15;;;;;;;178.50;161.13;;;22.80;66.60;;;;;;6240743;28;89533;-61
2024/01/13 03:15:17;;;;;;;167.07;150.65;;;22.90;66.40;;;;;;6242003;27;88286;-60
2024/01/13 03:18:19;;;;;;;154.90;139.80;;;23.00;65.50;;;;;;6242021;27;88077;-61
2024/01/13 03:21:21;;;;;;;143.10;129.30;;;23.00;65.20;;;;;;6238576;27;89001;-60
2024/01/13 03:24:24;;;;;;;220.00;199.13;;;23.00;65.10;;;;;;6229468;27;91026;-60
2024/01/13 03:27:27;;;;;;;304.48;276.10;;;23.00;64.70;;;;;;6231846;27;89086;-62
2024/01/13 03:30:28;;;;;;;292.20;264.77;;;23.10;64.60;;;;;;6235600;27;89117;-62
2024/01/13 03:33:31;;;;;;;251.32;227.75;;;23.10;64.20;;;;;;6226690;27;89343;-63
2024/01/13 03:36:33;;;;;;;222.85;201.93;;;23.00;63.80;;;;;;6239642;27;89076;-63
2024/01/13 03:39:36;;;;;;;227.18;206.02;;;23.10;63.80;;;;;;6241903;27;88494;-62
2024/01/13 03:42:38;;;;;;;209.15;189.15;;;23.10;63.80;;;;;;6246892;27;88912;-63
2024/01/13 03:45:40;;;;;;;195.63;176.38;;;23.10;63.80;;;;;;6235428;27;87584;-59
2024/01/13 03:48:42;;;;;;;184.38;166.43;;;23.10;63.80;;;;;;6245639;27;89449;-61
2024/01/13 03:51:44;;;;;;;179.20;161.52;;;23.20;63.80;;;;;;6248060;27;88995;-61
2024/01/13 03:54:48;;;;;;;170.95;154.25;;;23.20;63.90;;;;;;6250051;27;89997;-60
2024/01/13 03:57:49;;;;;;;163.93;147.90;;;23.20;63.80;;;;;;6243272;27;89012;-60
2024/01/13 04:00:52;;;;;;;159.60;143.85;;;23.10;64.90;;;;;;6239430;27;89127;-60
2024/01/13 04:03:54;;;;;;;156.93;141.68;;;23.20;64.40;;;;;;6237611;27;88017;-61
2024/01/13 04:06:56;;;;;;;149.48;135.05;;;23.20;64.20;;;;;;6253700;27;89046;-61
2024/01/13 04:09:59;;;;;;;145.05;131.25;;;23.20;64.20;;;;;;6240253;27;89075;-61
2024/01/13 04:13:01;;;;;;;139.98;126.28;;;23.20;64.00;;;;;;6249637;27;89073;-61
2024/01/13 04:16:04;;;;;;;133.65;120.80;;;23.20;64.10;;;;;;6246433;28;88544;-61
2024/01/13 04:19:06;;;;;;;130.82;118.25;;;23.20;64.00;;;;;;6249933;27;88094;-61
2024/01/13 04:22:08;;;;;;;126.95;114.75;;;23.20;64.00;;;;;;6244324;27;89073;-61
2024/01/13 04:25:11;;;;;;;123.43;111.50;;;23.20;63.90;;;;;;6230861;27;90119;-61
2024/01/13 04:28:13;;;;;;;118.60;107.40;;;23.20;64.00;;;;;;6239582;28;89091;-62
2024/01/13 04:31:15;;;;;;;109.43;99.10;;;23.20;64.00;;;;;;6233801;27;89065;-61
2024/01/13 04:34:17;;;;;;;108.32;98.03;;;23.20;63.90;;;;;;6231592;28;89289;-61
2024/01/13 04:37:19;;;;;;;110.30;99.88;;;23.20;64.10;;;;;;6229996;28;88975;-61
2024/01/13 04:40:23;;;;;;;127.68;115.47;;;23.20;64.20;;;;;;6241457;28;89010;-61
2024/01/13 04:43:25;;;;;;;143.18;129.55;;;23.20;63.80;;;;;;6244574;27;89488;-61
2024/01/13 04:46:27;;;;;;;145.65;131.65;;;23.10;63.70;;;;;;6244447;28;88388;-61
2024/01/13 04:49:29;;;;;;;152.77;138.27;;;23.10;63.70;;;;;;6248811;28;89017;-61
2024/01/13 04:52:31;;;;;;;156.85;141.70;;;23.10;63.70;;;;;;6237405;27;89498;-61
2024/01/13 04:55:34;;;;;;;175.05;158.30;;;23.10;63.80;;;;;;6240586;27;90026;-61
2024/01/13 04:58:36;;;;;;;283.60;258.10;;;23.10;64.20;;;;;;6233364;27;89041;-60
2024/01/13 05:01:38;;;;;;;294.83;268.10;;;23.10;64.00;;;;;;6236599;27;88204;-61
2024/01/13 05:04:40;;;;;;;338.77;307.25;;;23.10;63.90;;;;;;6234743;27;88958;-61
2024/01/13 05:07:42;;;;;;;315.52;286.48;;;23.10;63.50;;;;;;6244873;27;89251;-61
2024/01/13 05:10:45;;;;;;;289.27;262.23;;;23.10;63.20;;;;;;6239654;27;88979;-60
2024/01/13 05:13:47;;;;;;;257.55;233.48;;;23.00;62.80;;;;;;6244536;28;89552;-60
2024/01/13 05:16:49;;;;;;;240.50;217.85;;;23.00;62.50;;;;;;6235232;28;88283;-60
2024/01/13 05:19:51;;;;;;;222.25;201.13;;;23.10;62.20;;;;;;6245935;27;89376;-62
2024/01/13 05:22:53;;;;;;;206.45;186.65;;;23.10;61.90;;;;;;6251402;27;89115;-60
2024/01/13 05:25:57;;;;;;;192.90;174.10;;;23.00;61.60;;;;;;6239842;27;90022;-61
2024/01/13 05:28:59;;;;;;;173.80;156.40;;;23.00;61.40;;;;;;6252859;27;89027;-60
2024/01/13 05:32:01;;;;;;;165.52;149.10;;;23.10;61.80;;;;;;6239808;27;89102;-59
2024/01/13 05:35:03;;;;;;;151.82;137.15;;;23.00;62.10;;;;;;6229717;28;88549;-62
2024/01/13 05:38:06;;;;;;;145.85;131.77;;;23.00;62.30;;;;;;6240739;28;89030;-60
2024/01/13 05:41:11;;;;;;;143.18;129.25;;;23.00;62.80;;;;;;6245429;28;89217;-62
2024/01/13 05:44:13;;;;;;;135.60;122.60;;;23.00;63.30;;;;;;6240183;27;89099;-61
2024/01/13 05:47:14;;;;;;;129.65;117.05;;;23.00;63.40;;;;;;6240765;27;88379;-61
2024/01/13 05:50:17;;;;;;;122.63;110.80;;;23.00;63.00;;;;;;6239606;27;89094;-62
2024/01/13 05:53:18;;;;;;;113.07;101.68;;;22.90;62.50;;;;;;6242592;27;89106;-61
2024/01/13 05:56:22;;;;;;;101.10;91.05;;;22.90;62.30;;;;;;6252008;27;89905;-61
2024/01/13 05:59:24;;;;;;;98.70;89.03;;;23.00;62.20;;;;;;6243340;27;89221;-61
2024/01/13 06:02:26;;;;;;;100.53;90.43;;;22.90;61.60;;;;;;6229798;28;89524;-61
2024/01/13 06:05:28;;;;;;;110.05;98.63;;;22.90;61.30;;;;;;6234950;27;87914;-62
2024/01/13 06:08:30;;;;;;;133.50;119.55;;;22.90;61.20;;;;;;6245187;27;88945;-62
2024/01/13 06:11:33;;;;;;;128.70;115.10;;;22.90;61.00;;;;;;6244495;28;89353;-62
2024/01/13 06:14:35;;;;;;;127.90;114.50;;;22.90;61.00;;;;;;6236987;28;89043;-62
2024/01/13 06:17:37;;;;;;;112.07;100.47;;;22.80;60.70;;;;;;6254661;27;88656;-62
2024/01/13 06:20:39;;;;;;;104.85;93.82;;;22.90;60.80;;;;;;6253158;27;88997;-62
2024/01/13 06:23:41;;;;;;;105.00;93.85;;;22.80;60.70;;;;;;6245060;28;89135;-62
2024/01/13 06:26:44;;;;;;;86.35;77.38;;;22.80;60.30;;;;;;6230555;28;90386;-62
2024/01/13 06:29:46;;;;;;;69.35;61.83;;;22.80;60.00;;;;;;6249720;28;89070;-61
2024/01/13 06:32:48;;;;;;;63.33;56.67;;;22.80;59.10;;;;;;6244714;27;89028;-61
2024/01/13 06:35:50;;;;;;;54.65;48.75;;;22.80;58.40;;;;;;6234136;28;89359;-62
2024/01/13 06:38:52;;;;;;;49.17;43.30;;;22.80;57.60;;;;;;6239069;27;89025;-61
2024/01/13 06:41:56;;;;;;;46.38;41.42;;;22.70;56.90;;;;;;6241930;27;88979;-61
2024/01/13 06:44:57;;;;;;;44.60;39.67;;;22.70;56.60;;;;;;6241753;27;88992;-61
2024/01/13 06:47:59;;;;;;;43.70;38.92;;;22.70;56.70;;;;;;6246761;28;88307;-61
2024/01/13 06:51:01;;;;;;;43.72;38.97;;;22.70;57.10;;;;;;6233512;27;89239;-62
2024/01/13 06:54:04;;;;;;;43.58;38.83;;;22.70;57.50;;;;;;6242640;27;88998;-62
2024/01/13 06:57:07;;;;;;;41.72;36.42;;;22.70;58.00;;;;;;6230634;28;90117;-61
2024/01/13 07:00:10;;;;;;;41.50;35.45;;;22.70;58.30;;;;;;6232513;27;89051;-62
2024/01/13 07:03:12;;;;;;;37.65;33.65;;;22.70;58.70;;;;;;6243304;28;89545;-62
2024/01/13 07:06:14;;;;;;;36.63;32.70;;;22.70;59.10;;;;;;6232185;27;89126;-61
2024/01/13 07:09:18;;;;;;;36.70;31.55;;;22.70;59.30;;;;;;6235787;28;89140;-62
2024/01/13 07:12:21;;;;;;;35.45;30.70;;;22.70;59.60;;;;;;6243894;27;89126;-61
2024/01/13 07:15:23;;;;;;;32.67;29.17;;;22.70;59.90;;;;;;6233470;27;89036;-61
2024/01/13 07:18:27;;;;;;;31.13;27.75;;;22.70;60.00;;;;;;6238854;28;88315;-62
2024/01/13 07:21:29;;;;;;;30.50;26.90;;;22.70;60.30;;;;;;6236531;27;89099;-62
2024/01/13 07:24:31;;;;;;;31.05;27.50;;;22.70;60.60;;;;;;6232632;28;87885;-62
2024/01/13 07:27:35;;;;;;;43.22;38.63;;;22.70;60.80;;;;;;6235768;28;88881;-62
2024/01/13 07:30:37;;;;;;;53.75;48.05;;;22.70;61.00;;;;;;6237185;28;89271;-62
2024/01/13 07:33:39;;;;;;;64.00;57.28;;;22.70;61.10;;;;;;6242583;27;89101;-61
2024/01/13 07:36:41;;;;;;;87.22;78.22;;;22.70;61.30;;;;;;6238266;28;89259;-61
2024/01/13 07:39:44;;;;;;;129.15;115.95;;;22.70;61.60;;;;;;6236685;27;88788;-61
2024/01/13 07:42:47;;;;;;;155.95;140.02;;;22.70;62.60;;;;;;6236328;27;88919;-61
2024/01/13 07:45:50;;;;;;;208.98;188.48;;;22.70;62.80;;;;;;6231659;27;87677;-62
2024/01/13 07:48:52;;;;;;;213.90;193.23;;;22.70;63.00;;;;;;6227401;28;88382;-62
2024/01/13 07:51:54;;;;;;;235.48;213.20;;;22.70;63.20;;;;;;6232586;28;89297;-62
2024/01/13 07:54:56;;;;;;;232.85;211.02;;;22.70;63.30;;;;;;6235222;27;89031;-62
2024/01/13 07:58:00;;;;;;;220.35;199.13;;;22.70;63.50;;;;;;6234663;27;89941;-61
2024/01/13 08:01:03;;;;;;;230.73;209.20;;;22.80;63.70;;;;;;6244050;28;88882;-61
2024/01/13 08:04:05;;;;;;;218.27;197.30;;;22.80;64.00;;;;;;6241949;27;88228;-62
2024/01/13 08:07:07;;;;;;;219.60;199.00;;;22.80;64.10;;;;;;6240522;27;88444;-62
2024/01/13 08:10:10;;;;;;;225.75;204.30;;;22.80;64.20;;;;;;6235838;27;88684;-61
2024/01/13 08:13:15;;;;;;;230.00;208.27;;;22.80;64.30;;;;;;6234984;27;88966;-61
2024/01/13 08:16:17;;;;;;;226.30;204.95;;;22.80;64.50;;;;;;6243433;27;88947;-62
2024/01/13 08:19:19;;;;;;;215.25;194.70;;;22.80;64.90;;;;;;6232027;28;88340;-62
2024/01/13 08:22:21;;;;;;;208.27;188.40;;;22.80;64.90;;;;;;6233839;27;89107;-62
2024/01/13 08:25:23;;;;;;;208.57;188.40;;;22.80;65.00;;;;;;6242309;27;89187;-63
2024/01/13 08:28:26;;;;;;;201.48;182.55;;;22.80;65.00;;;;;;6239279;28;90010;-61
2024/01/13 08:31:28;;;;;;;200.35;181.25;;;22.80;65.00;;;;;;6232416;28;89179;-61
2024/01/13 08:34:30;;;;;;;190.32;172.02;;;22.80;65.10;;;;;;6237940;28;88997;-62
2024/01/13 08:37:32;;;;;;;187.25;169.00;;;22.80;65.20;;;;;;6233069;27;89304;-62
2024/01/13 08:40:34;;;;;;;174.65;157.50;;;22.90;65.50;;;;;;6238971;28;89436;-61
2024/01/13 08:43:40;;;;;;;168.52;151.95;;;22.90;65.60;;;;;;6243305;28;89397;-61
2024/01/13 08:46:43;;;;;;;170.15;153.63;;;22.80;65.60;;;;;;6247630;28;89067;-61
2024/01/13 08:49:45;;;;;;;163.73;147.95;;;22.90;65.70;;;;;;6244198;27;87154;-62
2024/01/13 08:52:48;;;;;;;160.63;145.05;;;22.90;65.80;;;;;;6237382;27;89193;-62
2024/01/13 08:55:50;;;;;;;156.23;141.13;;;22.90;65.90;;;;;;6248098;27;89222;-62
2024/01/13 08:58:53;;;;;;;154.68;139.45;;;22.90;65.90;;;;;;6242702;27;89918;-62
2024/01/13 09:01:56;;;;;;;173.00;156.20;;;22.90;66.00;;;;;;6238226;27;88035;-61
2024/01/13 09:04:57;;;;;;;192.98;174.73;;;22.90;66.00;;;;;;6236607;27;89122;-61
2024/01/13 09:07:59;;;;;;;220.45;200.13;;;22.90;66.10;;;;;;6240668;27;89327;-62
2024/01/13 09:11:01;;;;;;;253.10;230.38;;;22.90;66.10;;;;;;6240928;27;89454;-62
2024/01/13 09:14:05;;;;;;;265.88;241.98;;;22.90;66.20;;;;;;6241517;27;89054;-61
2024/01/13 09:17:07;;;;;;;259.85;235.95;;;22.90;66.40;;;;;;6239953;27;89160;-61
2024/01/13 09:20:10;;;;;;;264.25;240.57;;;22.90;66.30;;;;;;6242574;28;88774;-61
2024/01/13 09:23:12;;;;;;;270.05;245.70;;;23.00;66.40;;;;;;6234873;28;88811;-61
2024/01/13 09:26:14;;;;;;;249.40;226.95;;;23.00;66.50;;;;;;6238515;27;89014;-62
2024/01/13 09:29:18;;;;;;;236.23;214.80;;;23.00;66.60;;;;;;6257368;27;90723;-61
2024/01/13 09:32:20;;;;;;;220.52;200.68;;;23.00;66.50;;;;;;6252568;27;89015;-61
2024/01/13 09:35:22;;;;;;;216.70;197.10;;;23.00;66.60;;;;;;6238501;28;89245;-61
2024/01/13 09:38:24;;;;;;;195.52;177.23;;;23.00;66.60;;;;;;6242076;27;88972;-61
2024/01/13 09:41:26;;;;;;;181.98;164.77;;;22.90;66.90;;;;;;6245581;27;89059;-62
2024/01/13 09:44:30;;;;;;;163.82;148.32;;;23.00;67.50;;;;;;6241507;28;89009;-62
2024/01/13 09:47:32;;;;;;;157.55;142.65;;;23.00;67.20;;;;;;6244704;27;88689;-61
2024/01/13 09:50:35;;;;;;;151.05;136.77;;;23.00;67.10;;;;;;6250492;27;88598;-62
2024/01/13 09:53:48;;;;;;;140.50;127.20;;;23.00;67.10;;;;;;6229183;27;89599;-61
2024/01/13 09:56:51;;;;;;;128.70;116.47;;;23.00;67.10;;;;;;6242494;28;89026;-60
2024/01/13 09:59:55;;;;;;;124.28;112.38;;;23.00;67.10;;;;;;6237910;28;89957;-60
2024/01/13 10:02:57;;;;;;;113.32;102.53;;;23.00;67.40;;;;;;6232669;28;88958;-61
2024/01/13 10:05:59;;;;;;;114.30;103.18;;;23.00;67.20;;;;;;6246343;27;87948;-61
2024/01/13 10:09:01;;;;;;;109.15;98.63;;;23.00;67.50;;;;;;6241084;27;89127;-61
2024/01/13 10:12:07;;;;;;;107.45;97.35;;;23.00;67.60;;;;;;6236653;27;89011;-61
2024/01/13 10:15:15;;;;;;;104.70;94.75;;;23.00;67.60;;;;;;6240499;27;89092;-61
2024/01/13 10:18:18;;;;;;;98.38;89.15;;;23.00;67.50;;;;;;6246292;28;89148;-61
2024/01/13 10:21:20;;;;;;;97.55;88.55;;;23.00;67.40;;;;;;6251990;28;88270;-61
2024/01/13 10:24:22;;;;;;;92.95;84.07;;;23.00;67.20;;;;;;6251866;27;89035;-61
2024/01/13 10:27:24;;;;;;;93.35;84.50;;;23.00;67.10;;;;;;6239815;27;89058;-61
2024/01/13 10:30:28;;;;;;;89.35;81.00;;;23.00;67.00;;;;;;6235838;28;89951;-61
2024/01/13 10:33:31;;;;;;;86.57;78.32;;;23.00;66.90;;;;;;6244785;27;89149;-61
2024/01/13 10:36:33;;;;;;;86.85;78.55;;;23.00;66.80;;;;;;6242870;28;89180;-62
2024/01/13 10:39:35;;;;;;;85.05;77.20;;;23.00;66.70;;;;;;6236796;28;89183;-61
2024/01/13 10:42:38;;;;;;;80.38;72.88;;;23.00;66.70;;;;;;6250862;27;89065;-61
2024/01/13 10:45:51;;;;;;;78.75;71.25;;;23.00;66.60;;;;;;6230625;28;88854;-61
2024/01/13 10:49:01;;;;;;;75.07;67.72;;;23.00;66.50;;;;;;6231359;28;89284;-61
2024/01/13 10:52:04;;;;;;;70.65;63.88;;;23.00;66.40;;;;;;6246359;28;87232;-62
2024/01/13 10:55:08;;;;;;;69.32;62.72;;;23.00;66.40;;;;;;6243257;27;89104;-61
2024/01/13 10:58:11;;;;;;;66.15;59.80;;;23.00;66.40;;;;;;6243686;27;89020;-61
2024/01/13 11:01:14;;;;;;;68.35;61.75;;;23.00;66.40;;;;;;6253505;27;89776;-61
2024/01/13 11:04:18;;;;;;;64.97;58.85;;;23.00;66.40;;;;;;6253615;27;89581;-61
2024/01/13 11:07:20;;;;;;;64.43;58.42;;;23.00;66.40;;;;;;6254355;27;89046;-61
2024/01/13 11:10:27;;;;;;;63.70;57.60;;;23.00;66.30;;;;;;6242570;27;89385;-61
2024/01/13 11:13:33;;;;;;;61.35;55.45;;;23.00;66.20;;;;;;6239679;27;89008;-62
2024/01/13 11:16:38;;;;;;;60.35;54.65;;;23.00;66.10;;;;;;6241298;27;88963;-61
2024/01/13 11:19:43;;;;;;;59.60;54.05;;;23.00;66.10;;;;;;6237767;27;88992;-61
2024/01/13 11:22:57;;;;;;;57.65;52.20;;;23.00;66.10;;;;;;6250729;27;87105;-61
2024/01/13 11:25:59;;;;;;;57.78;52.38;;;23.00;66.10;;;;;;6233760;28;89264;-62
2024/01/13 11:29:01;;;;;;;56.72;51.22;;;23.00;66.10;;;;;;6239166;27;89661;-61
2024/01/13 11:32:05;;;;;;;54.47;49.17;;;23.00;66.00;;;;;;6230150;28;90512;-61
2024/01/13 11:35:07;;;;;;;52.65;47.65;;;23.00;66.90;;;;;;6243337;27;88352;-61
2024/01/13 11:38:09;;;;;;;52.55;47.55;;;23.00;66.00;;;;;;6230615;28;89080;-61
2024/01/13 11:41:12;;;;;;;51.25;46.42;;;23.00;66.80;;;;;;6239113;28;89396;-62
2024/01/13 11:44:22;;;;;;;50.47;45.67;;;23.00;66.80;;;;;;6232463;28;89119;-61
2024/01/13 11:47:29;;;;;;;49.75;45.00;;;23.00;65.80;;;;;;6239161;27;88160;-61
2024/01/13 11:50:38;;;;;;;47.38;42.88;;;23.00;65.80;;;;;;6247291;27;88279;-61
2024/01/13 11:53:41;;;;;;;46.75;42.25;;;23.00;65.80;;;;;;6239331;27;87747;-61
2024/01/13 11:56:44;;;;;;;44.85;40.65;;;23.00;65.70;;;;;;6252117;28;88059;-61
2024/01/13 11:59:46;;;;;;;46.13;41.65;;;23.00;65.70;;;;;;6245091;27;89432;-61
2024/01/13 12:02:49;;;;;;;41.97;38.00;;;23.00;65.70;;;;;;6235407;28;89885;-61
2024/01/13 12:05:52;;;;;;;43.40;39.38;;;23.00;65.70;;;;;;6241303;27;88994;-62
2024/01/13 12:08:54;;;;;;;42.83;38.72;;;23.00;65.70;;;;;;6233329;28;88668;-62
2024/01/13 12:11:57;;;;;;;42.70;38.70;;;23.00;65.70;;;;;;6244622;27;87943;-61
2024/01/13 12:15:03;;;;;;;40.88;36.97;;;23.00;65.70;;;;;;6237386;28;89156;-61
2024/01/13 12:18:07;;;;;;;41.05;36.95;;;23.00;65.70;;;;;;6235939;27;89004;-62
2024/01/13 12:21:09;;;;;;;38.95;35.25;;;23.00;65.70;;;;;;6244326;28;88978;-62
2024/01/13 12:24:10;;;;;;;39.10;35.30;;;23.00;65.70;;;;;;6234606;28;88254;-61
2024/01/13 12:27:12;;;;;;;38.30;34.70;;;23.00;65.70;;;;;;6248057;28;89066;-62
2024/01/13 12:30:19;;;;;;;38.88;35.28;;;23.00;65.60;;;;;;6243507;27;89062;-61
2024/01/13 12:33:23;;;;;;;37.42;33.97;;;23.00;65.50;;;;;;6234913;28;91191;-62
2024/01/13 12:36:25;;;;;;;35.67;32.25;;;23.00;65.60;;;;;;6254915;28;89011;-62
2024/01/13 12:39:27;;;;;;;36.15;32.67;;;23.00;65.50;;;;;;6242712;27;89316;-61
2024/01/13 12:42:29;;;;;;;35.53;32.22;;;23.00;65.50;;;;;;6235335;27;88964;-62
2024/01/13 12:45:33;;;;;;;34.60;31.30;;;23.00;65.50;;;;;;6237896;28;88924;-61
2024/01/13 12:48:36;;;;;;;32.05;28.95;;;23.00;65.50;;;;;;6250409;28;89065;-61
2024/01/13 12:51:41;;;;;;;33.65;30.52;;;23.00;65.50;;;;;;6237069;28;87806;-62
2024/01/13 12:54:43;;;;;;;30.65;27.83;;;23.00;65.50;;;;;;6258286;27;88328;-61
2024/01/13 12:57:45;;;;;;;31.50;28.60;;;23.00;65.40;;;;;;6243753;27;89051;-62
2024/01/13 13:00:47;;;;;;;30.55;27.65;;;23.00;65.50;;;;;;6238507;27;87960;-61
2024/01/13 13:03:51;;;;;;;29.92;27.08;;;23.00;66.40;;;;;;6232141;28;90238;-62
2024/01/13 13:06:53;;;;;;;29.45;26.65;;;23.00;65.50;;;;;;6236328;27;88101;-61
2024/01/13 13:09:55;;;;;;;29.88;27.13;;;23.00;65.50;;;;;;6255085;28;89132;-62
2024/01/13 13:13:02;;;;;;;28.27;25.58;;;23.00;65.50;;;;;;6243818;27;89038;-62
2024/01/13 13:16:06;;;;;;;29.23;26.42;;;23.00;65.40;;;;;;6244212;27;89329;-62
2024/01/13 13:19:11;;;;;;;28.98;26.17;;;23.00;65.40;;;;;;6243608;27;89539;-62
2024/01/13 13:22:14;;;;;;;28.58;25.90;;;23.00;65.40;;;;;;6237264;28;89228;-62
2024/01/13 13:25:16;;;;;;;28.55;25.85;;;23.00;65.30;;;;;;6233312;28;87152;-62
2024/01/13 13:28:18;;;;;;;27.35;24.75;;;23.00;65.30;;;;;;6247957;27;88242;-61
2024/01/13 13:31:20;;;;;;;27.10;24.50;;;23.00;65.20;;;;;;6243323;27;89066;-61
2024/01/13 13:34:23;;;;;;;27.33;24.73;;;23.00;65.20;;;;;;6245552;27;90042;-61
2024/01/13 13:37:25;;;;;;;28.23;25.42;;;23.00;65.20;;;;;;6250727;27;89060;-62
2024/01/13 13:40:27;;;;;;;26.55;24.05;;;22.90;65.20;;;;;;6242324;28;89038;-61
2024/01/13 13:43:30;;;;;;;26.83;24.20;;;22.90;65.10;;;;;;6244952;27;90030;-61
2024/01/13 13:46:32;;;;;;;25.88;23.40;;;22.90;65.10;;;;;;6244888;27;89446;-61
2024/01/13 13:49:35;;;;;;;25.60;23.20;;;22.90;65.10;;;;;;6242008;28;89457;-61
2024/01/13 13:52:37;;;;;;;25.63;23.23;;;22.90;65.10;;;;;;6239841;27;89080;-62
2024/01/13 13:55:39;;;;;;;24.77;22.48;;;22.80;65.00;;;;;;6251016;27;88720;-62
2024/01/13 13:58:41;;;;;;;25.25;22.85;;;22.90;65.00;;;;;;6235618;27;89020;-61
2024/01/13 14:01:44;;;;;;;25.33;22.83;;;22.80;65.00;;;;;;6254336;27;89134;-61
2024/01/13 14:04:48;;;;;;;25.48;22.98;;;22.80;65.00;;;;;;6242125;27;90027;-61
2024/01/13 14:07:50;;;;;;;24.13;21.80;;;22.80;65.00;;;;;;6254660;27;89175;-61
2024/01/13 14:10:52;;;;;;;24.13;21.85;;;22.80;65.00;;;;;;6237208;28;89080;-62
2024/01/13 14:13:54;;;;;;;25.45;22.95;;;22.80;64.90;;;;;;6254302;28;89299;-61
2024/01/13 14:16:55;;;;;;;23.25;21.05;;;22.80;64.90;;;;;;6255200;27;89156;-61
2024/01/13 14:19:59;;;;;;;23.25;20.98;;;22.70;64.90;;;;;;6255159;27;88988;-61
2024/01/13 14:23:01;;;;;;;23.20;21.10;;;22.70;64.80;;;;;;6239908;27;89429;-62
2024/01/13 14:26:03;;;;;;;22.75;20.55;;;22.70;64.80;;;;;;6237574;28;88458;-61
2024/01/13 14:29:06;;;;;;;22.17;20.17;;;22.70;64.80;;;;;;6234489;28;88170;-62
2024/01/13 14:32:07;;;;;;;22.95;20.65;;;22.70;64.90;;;;;;6236382;28;89065;-61
2024/01/13 14:35:12;;;;;;;21.77;19.70;;;22.70;64.80;;;;;;6241980;27;90344;-62
2024/01/13 14:38:14;;;;;;;21.95;19.85;;;22.70;64.90;;;;;;6236296;27;89030;-62
2024/01/13 14:41:16;;;;;;;22.13;20.02;;;22.70;64.80;;;;;;6245902;28;88998;-62
2024/01/13 14:44:18;;;;;;;21.10;19.10;;;22.70;64.80;;;;;;6244303;28;89017;-61
2024/01/13 14:47:20;;;;;;;20.70;18.73;;;22.70;64.80;;;;;;6246326;28;88867;-62
2024/01/13 14:50:24;;;;;;;21.27;19.17;;;22.60;64.80;;;;;;6253505;27;87924;-62
2024/01/13 14:53:26;;;;;;;20.38;18.42;;;22.70;64.80;;;;;;6244370;27;89196;-62
2024/01/13 14:56:28;;;;;;;20.20;18.30;;;22.70;64.70;;;;;;6245270;28;89554;-62
2024/01/13 14:59:30;;;;;;;20.63;18.63;;;22.60;64.70;;;;;;6234379;27;88987;-61
2024/01/13 15:02:32;;;;;;;19.50;17.70;;;22.60;64.70;;;;;;6230075;28;89387;-62
2024/01/13 15:05:39;;;;;;;19.83;17.92;;;22.60;64.70;;;;;;6237916;27;90012;-62
2024/01/13 15:08:41;;;;;;;19.85;17.95;;;22.60;64.60;;;;;;6248428;27;89698;-61
2024/01/13 15:11:42;;;;;;;19.85;17.95;;;22.60;64.60;;;;;;6237664;28;89067;-62
2024/01/13 15:14:44;;;;;;;19.58;17.65;;;22.60;64.70;;;;;;6235503;28;89051;-62